createdAt,value
2018-04-19T00:01:17.958Z,3.42
2018-04-19T00:03:46.142Z,3.30
2018-04-19T00:06:14.334Z,3.80
2018-04-19T00:08:42.518Z,3.17
2018-04-19T00:11:10.726Z,3.10
2018-04-19T00:13:38.142Z,3.33
2018-04-19T00:16:05.683Z,4.07
2018-04-19T00:18:33.182Z,3.30
2018-04-19T00:21:00.715Z,3.70
2018-04-19T00:23:28.195Z,3.87
2018-04-19T00:25:55.654Z,3.67
2018-04-19T00:28:23.074Z,3.28
2018-04-19T00:30:50.503Z,4.07
2018-04-19T00:33:17.964Z,3.90
2018-04-19T00:35:45.448Z,3.45
2018-04-19T00:38:12.906Z,3.80
2018-04-19T00:40:40.375Z,3.50
2018-04-19T00:43:07.794Z,3.12
2018-04-19T00:45:35.317Z,3.45
2018-04-19T00:48:02.787Z,2.90
2018-04-19T00:50:30.222Z,3.90
2018-04-19T00:53:09.515Z,4.18
2018-04-19T00:55:36.939Z,3.53
2018-04-19T00:58:05.122Z,3.30
2018-04-19T01:00:33.322Z,3.78
2018-04-19T01:03:01.506Z,3.58
2018-04-19T01:05:29.729Z,3.47
2018-04-19T01:07:57.196Z,3.70
2018-04-19T01:10:24.617Z,3.47
2018-04-19T01:12:52.034Z,3.30
2018-04-19T01:15:19.477Z,3.47
2018-04-19T01:17:47.687Z,3.45
2018-04-19T01:20:15.107Z,3.10
2018-04-19T01:22:42.530Z,3.42
2018-04-19T01:25:09.954Z,3.42
2018-04-19T01:27:37.459Z,3.58
2018-04-19T01:30:04.898Z,3.50
2018-04-19T01:32:33.327Z,3.60
2018-04-19T01:35:00.765Z,3.30
2018-04-19T01:37:28.978Z,3.95
2018-04-19T01:39:56.403Z,3.55
2018-04-19T01:42:23.828Z,3.53
2018-04-19T01:44:51.291Z,3.60
2018-04-19T01:47:18.706Z,4.05
2018-04-19T01:49:46.225Z,3.12
2018-04-19T01:52:13.642Z,3.62
2018-04-19T01:54:41.840Z,3.37
2018-04-19T01:57:09.254Z,4.25
2018-04-19T01:59:36.718Z,3.62
2018-04-19T02:02:04.137Z,3.80
2018-04-19T02:04:31.562Z,3.80
2018-04-19T02:06:58.974Z,3.58
2018-04-19T02:09:26.506Z,4.10
2018-04-19T02:11:53.921Z,3.55
2018-04-19T02:14:22.844Z,3.72
2018-04-19T02:16:51.055Z,3.92
2018-04-19T02:19:18.529Z,3.55
2018-04-19T02:21:45.995Z,4.12
2018-04-19T02:24:13.466Z,3.97
2018-04-19T02:26:40.967Z,3.55
2018-04-19T02:29:08.411Z,3.70
2018-04-19T02:31:35.875Z,3.87
2018-04-19T02:34:03.295Z,4.05
2018-04-19T02:36:30.723Z,3.80
2018-04-19T02:38:58.142Z,4.07
2018-04-19T02:41:25.655Z,3.75
2018-04-19T02:43:53.069Z,4.20
2018-04-19T02:46:20.520Z,4.53
2018-04-19T02:48:47.938Z,3.80
2018-04-19T02:51:16.150Z,4.10
2018-04-19T02:53:43.570Z,4.00
2018-04-19T02:56:11.001Z,4.05
2018-04-19T02:58:38.427Z,4.47
2018-04-19T03:01:06.623Z,3.55
2018-04-19T03:03:34.810Z,4.57
2018-04-19T03:06:03.019Z,4.22
2018-04-19T03:08:30.492Z,4.07
2018-04-19T03:10:57.963Z,4.47
2018-04-19T03:13:25.434Z,4.32
2018-04-19T03:15:52.862Z,3.85
2018-04-19T03:18:20.365Z,3.85
2018-04-19T03:20:47.790Z,3.83
2018-04-19T03:23:15.207Z,4.05
2018-04-19T03:25:42.675Z,3.90
2018-04-19T03:28:10.110Z,4.05
2018-04-19T03:30:38.335Z,3.75
2018-04-19T03:33:05.750Z,3.97
2018-04-19T03:35:33.406Z,3.90
2018-04-19T03:38:00.739Z,4.07
2018-04-19T03:40:28.163Z,3.47
2018-04-19T03:42:55.586Z,3.87
2018-04-19T03:45:23.014Z,4.00
2018-04-19T03:47:51.204Z,4.00
2018-04-19T03:50:19.392Z,3.85
2018-04-19T03:52:47.570Z,4.00
2018-04-19T03:55:15.762Z,3.75
2018-04-19T03:57:43.942Z,3.92
2018-04-19T04:00:12.166Z,3.53
2018-04-19T04:02:39.606Z,3.75
2018-04-19T04:05:08.532Z,4.00
2018-04-19T04:07:35.946Z,3.95
2018-04-19T04:10:03.487Z,4.15
2018-04-19T04:12:30.902Z,4.20
2018-04-19T04:14:59.853Z,4.15
2018-04-19T04:17:39.191Z,3.37
2018-04-19T04:20:12.535Z,4.45
2018-04-19T04:22:51.943Z,3.90
2018-04-19T04:25:20.130Z,4.15
2018-04-19T04:27:48.338Z,4.03
2018-04-19T04:30:15.812Z,4.37
2018-04-19T04:32:43.230Z,3.55
2018-04-19T04:35:10.642Z,4.68
2018-04-19T04:37:38.117Z,4.18
2018-04-19T04:40:06.507Z,4.30
2018-04-19T04:42:33.970Z,4.28
2018-04-19T04:45:01.394Z,5.07
2018-04-19T04:47:28.822Z,5.20
2018-04-19T04:49:56.296Z,4.97
2018-04-19T04:52:23.757Z,5.07
2018-04-19T04:54:51.174Z,5.25
2018-04-19T04:57:20.111Z,5.20
2018-04-19T04:59:47.593Z,5.10
2018-04-19T05:02:15.023Z,5.80
2018-04-19T05:04:42.438Z,5.57
2018-04-19T05:07:09.870Z,5.87
2018-04-19T05:09:38.091Z,5.70
2018-04-19T05:12:05.514Z,6.20
2018-04-19T05:14:33.035Z,5.82
2018-04-19T05:17:00.455Z,6.18
2018-04-19T05:19:27.879Z,5.70
2018-04-19T05:21:55.303Z,5.20
2018-04-19T05:24:23.527Z,4.70
2018-04-19T05:26:50.955Z,4.70
2018-04-19T05:29:19.155Z,5.47
2018-04-19T05:31:47.416Z,5.37
2018-04-19T05:34:14.783Z,4.72
2018-04-19T05:36:43.006Z,4.72
2018-04-19T05:39:11.190Z,4.18
2018-04-19T05:41:39.395Z,4.20
2018-04-19T05:44:06.819Z,4.40
2018-04-19T05:46:34.247Z,5.47
2018-04-19T05:49:01.684Z,3.90
2018-04-19T05:51:29.098Z,4.15
2018-04-19T05:53:56.539Z,4.60
2018-04-19T05:56:23.975Z,4.10
2018-04-19T05:58:51.403Z,4.30
2018-04-19T06:01:18.834Z,3.85
2018-04-19T06:03:46.317Z,4.05
2018-04-19T06:06:13.753Z,4.07
2018-04-19T06:08:41.223Z,4.10
2018-04-19T06:11:08.622Z,4.32
2018-04-19T06:13:36.039Z,4.28
2018-04-19T06:16:03.463Z,4.10
2018-04-19T06:18:30.889Z,4.57
2018-04-19T06:20:58.411Z,3.90
2018-04-19T06:23:25.871Z,4.45
2018-04-19T06:25:53.307Z,4.07
2018-04-19T06:28:20.814Z,3.95
2018-04-19T06:30:48.233Z,4.15
2018-04-19T06:33:15.763Z,4.40
2018-04-19T06:35:43.187Z,4.10
2018-04-19T06:38:10.606Z,4.20
2018-04-19T06:40:38.027Z,4.22
2018-04-19T06:43:06.222Z,4.37
2018-04-19T06:45:34.431Z,4.30
2018-04-19T06:48:01.866Z,4.32
2018-04-19T06:50:29.373Z,4.32
2018-04-19T06:52:56.797Z,4.45
2018-04-19T06:55:24.218Z,4.95
2018-04-19T06:57:51.650Z,4.57
2018-04-19T07:00:19.830Z,5.18
2018-04-19T07:02:48.022Z,5.10
2018-04-19T07:05:16.210Z,5.05
2018-04-19T07:07:44.408Z,5.65
2018-04-19T07:10:12.618Z,5.20
2018-04-19T07:12:40.052Z,5.10
2018-04-19T07:15:08.238Z,5.50
2018-04-19T07:17:35.751Z,5.05
2018-04-19T07:20:03.214Z,4.65
2018-04-19T07:22:30.642Z,4.62
2018-04-19T07:24:58.069Z,5.65
2018-04-19T07:27:25.494Z,5.18
2018-04-19T07:29:53.681Z,5.55
2018-04-19T07:32:21.918Z,5.05
2018-04-19T07:34:49.368Z,4.90
2018-04-19T07:37:16.797Z,5.62
2018-04-19T07:39:44.214Z,5.10
2018-04-19T07:42:11.645Z,5.30
2018-04-19T07:44:39.854Z,5.78
2018-04-19T07:47:07.286Z,5.12
2018-04-19T07:49:34.757Z,4.97
2018-04-19T07:52:02.965Z,5.55
2018-04-19T07:54:31.147Z,4.90
2018-04-19T07:56:59.347Z,4.90
2018-04-19T07:59:26.766Z,5.72
2018-04-19T08:01:55.737Z,5.80
2018-04-19T08:04:23.203Z,4.87
2018-04-19T08:06:50.632Z,5.22
2018-04-19T08:09:18.143Z,5.45
2018-04-19T08:11:45.614Z,5.70
2018-04-19T08:14:13.082Z,4.85
2018-04-19T08:16:40.550Z,5.32
2018-04-19T08:19:07.966Z,5.15
2018-04-19T08:21:36.203Z,5.25
2018-04-19T08:24:03.628Z,5.03
2018-04-19T08:26:31.049Z,5.37
2018-04-19T08:28:58.470Z,5.37
2018-04-19T08:31:25.891Z,6.05
2018-04-19T08:33:53.307Z,5.45
2018-04-19T08:36:20.821Z,5.87
2018-04-19T08:38:48.237Z,6.03
2018-04-19T08:41:15.666Z,5.62
2018-04-19T08:43:43.090Z,5.60
2018-04-19T08:46:10.510Z,6.75
2018-04-19T08:48:37.938Z,5.95
2018-04-19T08:51:06.132Z,5.50
2018-04-19T08:53:34.325Z,5.53
2018-04-19T08:56:01.809Z,5.03
2018-04-19T08:58:29.230Z,5.22
2018-04-19T09:00:56.751Z,4.80
2018-04-19T09:03:24.178Z,5.00
2018-04-19T09:05:51.603Z,4.75
2018-04-19T09:08:19.021Z,5.07
2018-04-19T09:10:47.209Z,4.62
2018-04-19T09:13:15.402Z,5.35
2018-04-19T09:15:43.615Z,4.75
2018-04-19T09:18:11.041Z,4.50
2018-04-19T09:20:38.558Z,4.50
2018-04-19T09:23:06.010Z,4.47
2018-04-19T09:25:33.602Z,4.53
2018-04-19T09:28:01.034Z,4.60
2018-04-19T09:30:29.252Z,4.50
2018-04-19T09:32:56.676Z,4.15
2018-04-19T09:35:24.103Z,5.00
2018-04-19T09:37:51.531Z,3.90
2018-04-19T09:40:19.746Z,4.45
2018-04-19T09:42:47.166Z,4.43
2018-04-19T09:45:14.690Z,4.05
2018-04-19T09:47:42.102Z,4.70
2018-04-19T09:50:09.535Z,3.87
2018-04-19T09:52:36.955Z,4.10
2018-04-19T09:55:04.475Z,3.80
2018-04-19T09:57:31.931Z,3.85
2018-04-19T09:59:59.359Z,4.12
2018-04-19T10:02:28.574Z,3.50
2018-04-19T10:05:01.906Z,3.83
2018-04-19T10:07:29.335Z,3.42
2018-04-19T10:09:56.864Z,3.75
2018-04-19T10:12:24.275Z,4.55
2018-04-19T10:14:51.798Z,3.35
2018-04-19T10:17:19.275Z,2.47
2018-04-19T10:19:46.746Z,2.92
2018-04-19T10:22:14.162Z,2.80
2018-04-19T10:24:41.590Z,2.83
2018-04-19T10:27:09.063Z,2.83
2018-04-19T10:29:36.482Z,2.75
2018-04-19T10:32:04.711Z,2.50
2018-04-19T10:34:32.139Z,2.37
2018-04-19T10:37:00.318Z,2.37
2018-04-19T10:39:27.747Z,2.25
2018-04-19T10:41:55.166Z,2.42
2018-04-19T10:44:23.395Z,2.80
2018-04-19T10:46:50.810Z,2.80
2018-04-19T10:49:18.234Z,2.70
2018-04-19T10:51:45.655Z,2.58
2018-04-19T10:54:13.217Z,2.40
2018-04-19T10:56:40.644Z,2.37
2018-04-19T10:59:08.103Z,2.55
2018-04-19T11:01:35.574Z,2.80
2018-04-19T11:04:02.993Z,2.90
2018-04-19T11:06:30.454Z,2.78
2018-04-19T11:08:58.830Z,2.85
2018-04-19T11:11:26.364Z,3.40
2018-04-19T11:13:53.834Z,2.83
2018-04-19T11:16:21.273Z,2.65
2018-04-19T11:18:48.774Z,2.65
2018-04-19T11:21:16.251Z,2.75
2018-04-19T11:23:43.675Z,3.00
2018-04-19T11:26:12.618Z,2.58
2018-04-19T11:28:40.038Z,3.45
2018-04-19T11:31:07.466Z,2.85
2018-04-19T11:33:34.932Z,2.55
2018-04-19T11:36:02.400Z,2.72
2018-04-19T11:38:29.866Z,2.95
2018-04-19T11:40:57.340Z,2.33
2018-04-19T11:43:24.803Z,2.30
2018-04-19T11:45:52.282Z,2.95
2018-04-19T11:48:19.751Z,2.08
2018-04-19T11:50:47.175Z,2.12
2018-04-19T11:53:14.607Z,2.05
2018-04-19T11:55:42.031Z,2.60
2018-04-19T11:58:10.238Z,2.62
2018-04-19T12:00:37.712Z,2.10
2018-04-19T12:03:05.179Z,2.05
2018-04-19T12:05:32.651Z,1.60
2018-04-19T12:08:00.118Z,2.33
2018-04-19T12:10:27.538Z,2.17
2018-04-19T12:12:54.966Z,2.28
2018-04-19T12:15:22.382Z,2.22
2018-04-19T12:17:49.909Z,1.70
2018-04-19T12:20:17.323Z,2.30
2018-04-19T12:22:44.746Z,2.33
2018-04-19T12:25:12.171Z,2.40
2018-04-19T12:27:40.370Z,2.03
2018-04-19T12:30:08.579Z,2.15
2018-04-19T12:32:36.001Z,1.80
2018-04-19T12:35:03.430Z,1.85
2018-04-19T12:37:30.975Z,1.87
2018-04-19T12:39:58.313Z,2.10
2018-04-19T12:42:25.833Z,1.98
2018-04-19T12:44:53.245Z,1.83
2018-04-19T12:47:20.675Z,1.40
2018-04-19T12:49:48.135Z,1.90
2018-04-19T12:52:15.564Z,1.90
2018-04-19T12:54:42.983Z,1.80
2018-04-19T12:57:10.423Z,1.60
2018-04-19T12:59:37.848Z,1.70
2018-04-19T13:02:05.263Z,2.12
2018-04-19T13:04:32.741Z,2.00
2018-04-19T13:07:00.156Z,1.30
2018-04-19T13:09:27.583Z,1.87
2018-04-19T13:11:55.027Z,1.62
2018-04-19T13:14:23.215Z,1.80
2018-04-19T13:16:51.436Z,2.10
2018-04-19T13:19:18.859Z,1.65
2018-04-19T13:21:47.096Z,1.77
2018-04-19T13:24:14.550Z,1.65
2018-04-19T13:26:41.966Z,1.37
2018-04-19T13:29:09.417Z,1.55
2018-04-19T13:31:36.830Z,2.03
2018-04-19T13:34:05.055Z,1.67
2018-04-19T13:36:32.473Z,1.55
2018-04-19T13:38:59.990Z,1.40
2018-04-19T13:41:27.422Z,1.55
2018-04-19T13:43:55.634Z,1.48
2018-04-19T13:46:23.834Z,1.33
2018-04-19T13:48:51.798Z,1.52
2018-04-19T13:51:19.217Z,1.25
2018-04-19T13:53:46.654Z,1.33
2018-04-19T13:56:14.071Z,1.60
2018-04-19T13:58:41.501Z,1.70
2018-04-19T14:01:08.926Z,1.58
2018-04-19T14:03:37.154Z,1.20
2018-04-19T14:06:04.569Z,1.62
2018-04-19T14:08:32.099Z,1.42
2018-04-19T14:10:59.599Z,1.40
2018-04-19T14:13:27.026Z,1.30
2018-04-19T14:15:54.441Z,1.23
2018-04-19T14:18:21.870Z,1.40
2018-04-19T14:20:49.366Z,1.50
2018-04-19T14:23:16.759Z,1.42
2018-04-19T14:25:44.301Z,2.05
2018-04-19T14:28:11.707Z,1.55
2018-04-19T14:30:39.214Z,1.52
2018-04-19T14:33:06.686Z,1.65
2018-04-19T14:35:34.160Z,1.40
2018-04-19T14:38:01.623Z,1.40
2018-04-19T14:40:29.038Z,1.40
2018-04-19T14:42:56.567Z,1.70
2018-04-19T14:45:23.983Z,1.90
2018-04-19T14:47:51.415Z,1.77
2018-04-19T14:50:18.871Z,1.50
2018-04-19T14:52:46.347Z,1.62
2018-04-19T14:55:13.813Z,1.25
2018-04-19T14:57:41.337Z,1.37
2018-04-19T15:00:08.711Z,1.35
2018-04-19T15:02:36.218Z,1.30
2018-04-19T15:05:03.651Z,1.30
2018-04-19T15:07:31.177Z,1.12
2018-04-19T15:09:58.620Z,1.17
2018-04-19T15:12:26.214Z,1.20
2018-04-19T15:14:53.647Z,1.40
2018-04-19T15:17:21.856Z,1.52
2018-04-19T15:19:49.284Z,1.83
2018-04-19T15:22:16.698Z,1.83
2018-04-19T15:24:44.166Z,1.58
2018-04-19T15:27:11.581Z,1.67
2018-04-19T15:29:39.007Z,1.25
2018-04-19T15:32:06.426Z,1.62
2018-04-19T15:34:33.946Z,1.48
2018-04-19T15:37:01.418Z,1.95
2018-04-19T15:39:28.847Z,1.52
2018-04-19T15:41:57.034Z,2.00
2018-04-19T15:44:25.255Z,1.60
2018-04-19T15:46:52.686Z,1.48
2018-04-19T15:49:20.194Z,1.65
2018-04-19T15:51:47.663Z,1.70
2018-04-19T15:54:15.123Z,1.50
2018-04-19T15:56:42.512Z,1.35
2018-04-19T15:59:09.939Z,1.92
2018-04-19T16:01:38.122Z,1.95
2018-04-19T16:04:06.319Z,1.87
2018-04-19T16:06:34.502Z,1.80
2018-04-19T16:09:02.694Z,1.45
2018-04-19T16:11:30.877Z,1.50
2018-04-19T16:13:59.070Z,1.60
2018-04-19T16:16:27.283Z,1.62
2018-04-19T16:18:55.677Z,1.52
2018-04-19T16:21:23.090Z,1.80
2018-04-19T16:23:50.519Z,1.70
2018-04-19T16:26:17.982Z,1.58
2018-04-19T16:28:48.621Z,2.00
2018-04-19T16:31:12.867Z,2.10
2018-04-19T16:33:40.289Z,1.95
2018-04-19T16:36:07.759Z,1.90
2018-04-19T16:38:35.239Z,2.10
2018-04-19T16:41:02.650Z,1.98
2018-04-19T16:43:30.054Z,1.60
2018-04-19T16:45:57.475Z,1.60
2018-04-19T16:48:24.997Z,1.60
2018-04-19T16:50:52.422Z,1.45
2018-04-19T16:53:19.855Z,1.87
2018-04-19T16:55:47.294Z,2.22
2018-04-19T16:58:15.462Z,1.87
2018-04-19T17:00:43.646Z,2.08
2018-04-19T17:03:11.863Z,2.20
2018-04-19T17:05:39.334Z,2.25
2018-04-19T17:08:07.009Z,1.48
2018-04-19T17:10:34.429Z,1.35
2018-04-19T17:13:01.854Z,1.80
2018-04-19T17:15:29.399Z,1.75
2018-04-19T17:17:57.605Z,1.87
2018-04-19T17:20:25.086Z,1.70
2018-04-19T17:22:52.555Z,1.73
2018-04-19T17:25:20.019Z,1.77
2018-04-19T17:27:47.439Z,1.73
2018-04-19T17:30:14.963Z,1.40
2018-04-19T17:32:42.387Z,1.50
2018-04-19T17:35:10.724Z,1.80
2018-04-19T17:37:38.881Z,1.90
2018-04-19T17:40:07.091Z,1.48
2018-04-19T17:42:34.566Z,1.62
2018-04-19T17:45:01.995Z,1.50
2018-04-19T17:47:30.178Z,1.95
2018-04-19T17:49:57.607Z,1.80
2018-04-19T17:52:25.031Z,1.60
2018-04-19T17:54:53.244Z,2.05
2018-04-19T17:57:20.670Z,1.75
2018-04-19T17:59:48.183Z,2.20
2018-04-19T18:02:15.602Z,1.80
2018-04-19T18:04:43.122Z,1.98
2018-04-19T18:07:10.695Z,3.08
2018-04-19T18:09:38.865Z,3.10
2018-04-19T18:12:07.068Z,2.05
2018-04-19T18:14:34.486Z,1.50
2018-04-19T18:17:02.015Z,1.80
2018-04-19T18:19:29.582Z,1.45
2018-04-19T18:21:57.767Z,2.20
2018-04-19T18:24:25.187Z,2.05
2018-04-19T18:26:52.706Z,1.77
2018-04-19T18:29:20.177Z,1.50
2018-04-19T18:31:47.659Z,1.90
2018-04-19T18:34:15.105Z,2.12
2018-04-19T18:36:42.586Z,1.65
2018-04-19T18:39:10.001Z,1.77
2018-04-19T18:41:37.528Z,1.83
2018-04-19T18:44:04.947Z,2.00
2018-04-19T18:46:32.378Z,2.08
2018-04-19T18:48:59.842Z,1.92
2018-04-19T18:51:27.303Z,1.80
2018-04-19T18:53:54.774Z,1.73
2018-04-19T18:56:22.245Z,2.08
2018-04-19T18:58:49.723Z,2.22
2018-04-19T19:01:17.143Z,1.95
2018-04-19T19:03:44.654Z,1.77
2018-04-19T19:06:12.070Z,2.10
2018-04-19T19:08:40.267Z,2.00
2018-04-19T19:11:07.778Z,2.12
2018-04-19T19:13:35.255Z,1.80
2018-04-19T19:16:10.077Z,1.77
2018-04-19T19:18:50.163Z,1.70
2018-04-19T19:21:17.635Z,1.67
2018-04-19T19:23:45.065Z,1.87
2018-04-19T19:26:12.479Z,2.37
2018-04-19T19:28:39.911Z,2.00
2018-04-19T19:31:08.102Z,2.05
2018-04-19T19:33:36.294Z,1.92
2018-04-19T19:36:04.475Z,2.12
2018-04-19T19:38:32.674Z,2.17
2018-04-19T19:41:00.155Z,2.30
2018-04-19T19:43:27.629Z,2.50
2018-04-19T19:45:55.091Z,1.98
2018-04-19T19:48:22.561Z,1.90
2018-04-19T19:50:49.985Z,2.10
2018-04-19T19:53:17.404Z,2.10
2018-04-19T19:55:44.937Z,1.87
2018-04-19T19:58:12.285Z,1.90
2018-04-19T20:00:39.810Z,2.75
2018-04-19T20:03:07.279Z,2.10
2018-04-19T20:05:34.709Z,2.28
2018-04-19T20:08:02.227Z,2.15
2018-04-19T20:10:29.895Z,2.47
2018-04-19T20:12:57.370Z,2.50
2018-04-19T20:15:24.799Z,2.28
2018-04-19T20:17:52.209Z,2.80
2018-04-19T20:20:19.639Z,2.42
2018-04-19T20:22:47.819Z,1.90
2018-04-19T20:25:15.251Z,2.30
2018-04-19T20:27:42.694Z,2.30
2018-04-19T20:30:10.167Z,2.75
2018-04-19T20:32:37.593Z,2.90
2018-04-19T20:35:05.018Z,2.72
2018-04-19T20:37:32.781Z,2.80
2018-04-19T20:40:00.251Z,2.62
2018-04-19T20:42:27.684Z,2.85
2018-04-19T20:44:55.195Z,2.75
2018-04-19T20:47:22.614Z,2.62
2018-04-19T20:49:50.808Z,3.03
2018-04-19T20:52:18.998Z,2.70
2018-04-19T20:54:47.205Z,2.60
2018-04-19T20:57:14.694Z,3.10
2018-04-19T20:59:42.121Z,2.83
2018-04-19T21:02:09.601Z,2.92
2018-04-19T21:04:36.966Z,2.67
2018-04-19T21:07:05.158Z,2.80
2018-04-19T21:09:33.347Z,2.60
2018-04-19T21:12:01.527Z,2.58
2018-04-19T21:14:29.955Z,3.10
2018-04-19T21:16:57.423Z,3.10
2018-04-19T21:19:24.859Z,2.92
2018-04-19T21:21:52.272Z,2.62
2018-04-19T21:24:19.694Z,3.42
2018-04-19T21:26:47.886Z,2.72
2018-04-19T21:29:16.079Z,2.65
2018-04-19T21:31:44.291Z,3.10
2018-04-19T21:34:11.708Z,3.05
2018-04-19T21:36:39.129Z,2.53
2018-04-19T21:39:06.602Z,3.00
2018-04-19T21:41:34.066Z,3.00
2018-04-19T21:44:01.493Z,2.45
2018-04-19T21:46:29.003Z,3.22
2018-04-19T21:48:56.427Z,3.10
2018-04-19T21:51:25.370Z,2.90
2018-04-19T21:53:52.847Z,3.03
2018-04-19T21:56:20.332Z,2.65
2018-04-19T21:58:47.786Z,2.95
2018-04-19T22:01:15.222Z,3.00
2018-04-19T22:03:42.735Z,2.72
2018-04-19T22:06:10.201Z,3.08
2018-04-19T22:08:37.668Z,2.83
2018-04-19T22:11:05.090Z,2.65
2018-04-19T22:13:33.279Z,3.30
2018-04-19T22:16:00.803Z,2.92
2018-04-19T22:18:28.214Z,2.75
2018-04-19T22:20:55.741Z,2.70
2018-04-19T22:23:23.158Z,2.87
2018-04-19T22:25:51.350Z,2.50
2018-04-19T22:28:18.770Z,3.50
2018-04-19T22:30:46.207Z,3.33
2018-04-19T22:33:14.394Z,3.60
2018-04-19T22:35:42.588Z,2.83
2018-04-19T22:38:10.006Z,3.42
2018-04-19T22:40:37.426Z,4.75
2018-04-19T22:43:04.850Z,4.00
2018-04-19T22:45:32.280Z,3.75
2018-04-19T22:47:59.882Z,3.50
2018-04-19T22:50:27.303Z,3.15
2018-04-19T22:52:54.723Z,3.25
2018-04-19T22:55:22.255Z,3.20
2018-04-19T22:57:49.675Z,3.67
2018-04-19T23:00:17.104Z,3.40
2018-04-19T23:02:44.563Z,3.05
2018-04-19T23:05:13.863Z,3.12
2018-04-19T23:07:42.063Z,3.03
2018-04-19T23:10:09.498Z,3.80
2018-04-19T23:12:36.914Z,3.35
2018-04-19T23:15:04.347Z,3.17
2018-04-19T23:17:32.545Z,3.00
2018-04-19T23:20:00.723Z,3.33
2018-04-19T23:22:34.885Z,3.40
2018-04-19T23:25:02.331Z,2.92
2018-04-19T23:27:29.818Z,4.03
2018-04-19T23:29:57.254Z,3.05
2018-04-19T23:32:25.444Z,2.90
2018-04-19T23:34:53.667Z,3.55
2018-04-19T23:37:21.078Z,3.62
2018-04-19T23:39:49.261Z,3.58
2018-04-19T23:42:16.699Z,3.12
2018-04-19T23:44:44.113Z,3.15
2018-04-19T23:47:12.310Z,3.30
2018-04-19T23:49:40.490Z,3.12
2018-04-19T23:52:08.682Z,3.42
2018-04-19T23:54:36.898Z,3.85
2018-04-19T23:57:04.333Z,2.95
2018-04-19T23:59:31.746Z,3.53
